sensor_id;sensor_type;location;lat;lon;timestamp;P1;durP1;ratioP1;P2;durP2;ratioP2
1699;SDS011;847;48.058;7.810;2024-03-23T00:51:11;2.50;;;2.30;;
1699;SDS011;847;48.058;7.810;2024-03-23T00:56:05;1.90;;;1.70;;
1699;SDS011;847;48.058;7.810;2024-03-23T00:58:33;1.80;;;1.70;;
1699;SDS011;847;48.058;7.810;2024-03-23T01:01:00;3.13;;;2.30;;
1699;SDS011;847;48.058;7.810;2024-03-23T01:03:28;2.60;;;2.20;;
1699;SDS011;847;48.058;7.810;2024-03-23T01:05:54;2.10;;;1.90;;
1699;SDS011;847;48.058;7.810;2024-03-23T01:08:21;2.30;;;2.10;;
1699;SDS011;847;48.058;7.810;2024-03-23T01:10:53;2.57;;;2.10;;
1699;SDS011;847;48.058;7.810;2024-03-23T01:13:23;2.20;;;2.00;;
1699;SDS011;847;48.058;7.810;2024-03-23T01:15:51;2.70;;;2.00;;
1699;SDS011;847;48.058;7.810;2024-03-23T01:18:18;2.60;;;2.40;;
1699;SDS011;847;48.058;7.810;2024-03-23T01:20:44;2.33;;;1.77;;
1699;SDS011;847;48.058;7.810;2024-03-23T01:23:11;1.90;;;1.80;;
1699;SDS011;847;48.058;7.810;2024-03-23T01:25:37;1.67;;;1.57;;
1699;SDS011;847;48.058;7.810;2024-03-23T01:28:04;3.20;;;2.20;;
1699;SDS011;847;48.058;7.810;2024-03-23T01:30:31;2.10;;;1.90;;
1699;SDS011;847;48.058;7.810;2024-03-23T01:32:59;3.13;;;2.00;;
1699;SDS011;847;48.058;7.810;2024-03-23T01:35:25;2.10;;;1.90;;
1699;SDS011;847;48.058;7.810;2024-03-23T01:37:52;5.07;;;4.20;;
1699;SDS011;847;48.058;7.810;2024-03-23T01:40:18;2.70;;;2.37;;
1699;SDS011;847;48.058;7.810;2024-03-23T01:42:54;2.20;;;2.00;;
1699;SDS011;847;48.058;7.810;2024-03-23T01:45:20;3.00;;;2.07;;
1699;SDS011;847;48.058;7.810;2024-03-23T01:47:48;3.20;;;1.77;;
1699;SDS011;847;48.058;7.810;2024-03-23T01:50:15;2.73;;;2.30;;
1699;SDS011;847;48.058;7.810;2024-03-23T01:52:43;2.83;;;2.10;;
1699;SDS011;847;48.058;7.810;2024-03-23T01:55:09;2.37;;;1.90;;
1699;SDS011;847;48.058;7.810;2024-03-23T01:57:36;3.50;;;1.70;;
1699;SDS011;847;48.058;7.810;2024-03-23T02:00:02;3.50;;;1.83;;
1699;SDS011;847;48.058;7.810;2024-03-23T02:02:29;2.67;;;2.47;;
1699;SDS011;847;48.058;7.810;2024-03-23T02:04:55;4.30;;;2.43;;
1699;SDS011;847;48.058;7.810;2024-03-23T02:07:23;2.63;;;2.43;;
1699;SDS011;847;48.058;7.810;2024-03-23T02:09:49;3.67;;;2.00;;
1699;SDS011;847;48.058;7.810;2024-03-23T02:12:17;2.23;;;2.03;;
1699;SDS011;847;48.058;7.810;2024-03-23T02:14:43;2.33;;;2.13;;
1699;SDS011;847;48.058;7.810;2024-03-23T02:17:10;3.00;;;2.43;;
1699;SDS011;847;48.058;7.810;2024-03-23T02:19:36;3.13;;;2.27;;
1699;SDS011;847;48.058;7.810;2024-03-23T02:22:02;4.03;;;2.50;;
1699;SDS011;847;48.058;7.810;2024-03-23T02:24:30;5.93;;;2.17;;
1699;SDS011;847;48.058;7.810;2024-03-23T02:26:57;2.90;;;2.50;;
1699;SDS011;847;48.058;7.810;2024-03-23T02:29:22;2.53;;;2.33;;
1699;SDS011;847;48.058;7.810;2024-03-23T02:31:49;3.37;;;2.40;;
1699;SDS011;847;48.058;7.810;2024-03-23T02:34:15;4.90;;;2.63;;
1699;SDS011;847;48.058;7.810;2024-03-23T02:36:42;4.23;;;2.70;;
1699;SDS011;847;48.058;7.810;2024-03-23T02:39:08;3.27;;;2.23;;
1699;SDS011;847;48.058;7.810;2024-03-23T02:41:36;3.50;;;2.13;;
1699;SDS011;847;48.058;7.810;2024-03-23T02:44:02;4.43;;;2.97;;
1699;SDS011;847;48.058;7.810;2024-03-23T02:46:29;4.67;;;2.83;;
1699;SDS011;847;48.058;7.810;2024-03-23T02:48:54;2.77;;;2.53;;
1699;SDS011;847;48.058;7.810;2024-03-23T02:51:22;3.23;;;2.90;;
1699;SDS011;847;48.058;7.810;2024-03-23T02:53:48;3.30;;;2.97;;
1699;SDS011;847;48.058;7.810;2024-03-23T02:56:15;2.93;;;2.70;;
1699;SDS011;847;48.058;7.810;2024-03-23T02:58:43;11.90;;;9.17;;
1699;SDS011;847;48.058;7.810;2024-03-23T03:01:09;4.90;;;3.73;;
1699;SDS011;847;48.058;7.810;2024-03-23T03:03:35;5.53;;;2.90;;
1699;SDS011;847;48.058;7.810;2024-03-23T03:06:01;3.80;;;2.80;;
1699;SDS011;847;48.058;7.810;2024-03-23T03:08:28;3.07;;;2.60;;
1699;SDS011;847;48.058;7.810;2024-03-23T03:10:54;2.60;;;2.40;;
1699;SDS011;847;48.058;7.810;2024-03-23T03:13:21;2.80;;;2.60;;
1699;SDS011;847;48.058;7.810;2024-03-23T03:15:48;2.70;;;2.40;;
1699;SDS011;847;48.058;7.810;2024-03-23T03:18:15;3.73;;;2.53;;
1699;SDS011;847;48.058;7.810;2024-03-23T03:20:40;3.67;;;2.70;;
1699;SDS011;847;48.058;7.810;2024-03-23T03:23:07;4.50;;;3.20;;
1699;SDS011;847;48.058;7.810;2024-03-23T03:25:34;4.63;;;2.47;;
1699;SDS011;847;48.058;7.810;2024-03-23T03:28:00;2.13;;;2.00;;
1699;SDS011;847;48.058;7.810;2024-03-23T03:30:26;2.80;;;2.23;;
1699;SDS011;847;48.058;7.810;2024-03-23T03:32:55;5.50;;;3.37;;
1699;SDS011;847;48.058;7.810;2024-03-23T03:35:20;2.50;;;2.30;;
1699;SDS011;847;48.058;7.810;2024-03-23T03:37:47;5.30;;;2.47;;
1699;SDS011;847;48.058;7.810;2024-03-23T03:40:13;3.27;;;2.47;;
1699;SDS011;847;48.058;7.810;2024-03-23T03:42:41;2.90;;;2.67;;
1699;SDS011;847;48.058;7.810;2024-03-23T03:45:07;4.53;;;2.87;;
1699;SDS011;847;48.058;7.810;2024-03-23T03:47:33;3.00;;;2.70;;
1699;SDS011;847;48.058;7.810;2024-03-23T03:50:01;3.87;;;2.70;;
1699;SDS011;847;48.058;7.810;2024-03-23T03:52:27;3.40;;;2.90;;
1699;SDS011;847;48.058;7.810;2024-03-23T03:54:55;4.60;;;2.73;;
1699;SDS011;847;48.058;7.810;2024-03-23T03:57:28;3.13;;;2.43;;
1699;SDS011;847;48.058;7.810;2024-03-23T03:59:54;3.33;;;2.73;;
1699;SDS011;847;48.058;7.810;2024-03-23T04:02:20;4.40;;;2.60;;
1699;SDS011;847;48.058;7.810;2024-03-23T04:04:46;5.00;;;3.93;;
1699;SDS011;847;48.058;7.810;2024-03-23T04:07:14;3.50;;;3.20;;
1699;SDS011;847;48.058;7.810;2024-03-23T04:09:40;6.40;;;3.10;;
1699;SDS011;847;48.058;7.810;2024-03-23T04:12:07;3.27;;;2.97;;
1699;SDS011;847;48.058;7.810;2024-03-23T04:14:33;4.37;;;3.30;;
1699;SDS011;847;48.058;7.810;2024-03-23T04:17:00;4.67;;;2.90;;
1699;SDS011;847;48.058;7.810;2024-03-23T04:19:25;3.03;;;2.77;;
1699;SDS011;847;48.058;7.810;2024-03-23T04:21:52;4.07;;;3.33;;
1699;SDS011;847;48.058;7.810;2024-03-23T04:24:19;3.60;;;2.87;;
1699;SDS011;847;48.058;7.810;2024-03-23T04:26:47;3.37;;;2.90;;
1699;SDS011;847;48.058;7.810;2024-03-23T04:29:13;14.90;;;4.83;;
1699;SDS011;847;48.058;7.810;2024-03-23T04:31:40;5.03;;;3.63;;
1699;SDS011;847;48.058;7.810;2024-03-23T04:34:05;3.43;;;3.13;;
1699;SDS011;847;48.058;7.810;2024-03-23T04:36:32;4.03;;;3.37;;
1699;SDS011;847;48.058;7.810;2024-03-23T04:38:58;4.37;;;3.47;;
1699;SDS011;847;48.058;7.810;2024-03-23T04:41:27;5.23;;;3.17;;
1699;SDS011;847;48.058;7.810;2024-03-23T04:43:54;4.70;;;3.07;;
1699;SDS011;847;48.058;7.810;2024-03-23T04:46:21;3.90;;;3.50;;
1699;SDS011;847;48.058;7.810;2024-03-23T04:48:48;5.80;;;3.70;;
1699;SDS011;847;48.058;7.810;2024-03-23T04:51:20;3.70;;;3.40;;
1699;SDS011;847;48.058;7.810;2024-03-23T04:53:47;4.20;;;3.70;;
1699;SDS011;847;48.058;7.810;2024-03-23T04:56:13;4.70;;;4.20;;
1699;SDS011;847;48.058;7.810;2024-03-23T04:58:41;6.53;;;4.00;;
1699;SDS011;847;48.058;7.810;2024-03-23T05:01:07;4.20;;;3.80;;
1699;SDS011;847;48.058;7.810;2024-03-23T05:03:34;4.27;;;3.87;;
1699;SDS011;847;48.058;7.810;2024-03-23T05:05:59;4.50;;;3.90;;
1699;SDS011;847;48.058;7.810;2024-03-23T05:08:26;5.73;;;3.80;;
1699;SDS011;847;48.058;7.810;2024-03-23T05:10:52;5.07;;;3.97;;
1699;SDS011;847;48.058;7.810;2024-03-23T05:13:19;4.60;;;3.73;;
1699;SDS011;847;48.058;7.810;2024-03-23T05:15:51;5.60;;;3.97;;
1699;SDS011;847;48.058;7.810;2024-03-23T05:18:18;4.50;;;4.10;;
1699;SDS011;847;48.058;7.810;2024-03-23T05:20:44;5.00;;;3.83;;
1699;SDS011;847;48.058;7.810;2024-03-23T05:23:11;8.80;;;4.40;;
1699;SDS011;847;48.058;7.810;2024-03-23T05:25:37;4.30;;;3.90;;
1699;SDS011;847;48.058;7.810;2024-03-23T05:28:04;6.10;;;4.40;;
1699;SDS011;847;48.058;7.810;2024-03-23T05:30:30;4.80;;;4.20;;
1699;SDS011;847;48.058;7.810;2024-03-23T05:32:58;4.27;;;3.87;;
1699;SDS011;847;48.058;7.810;2024-03-23T05:35:24;6.83;;;4.10;;
1699;SDS011;847;48.058;7.810;2024-03-23T05:37:51;5.63;;;4.23;;
1699;SDS011;847;48.058;7.810;2024-03-23T05:40:16;6.00;;;4.30;;
1699;SDS011;847;48.058;7.810;2024-03-23T05:42:43;5.03;;;4.53;;
1699;SDS011;847;48.058;7.810;2024-03-23T05:45:09;7.40;;;3.70;;
1699;SDS011;847;48.058;7.810;2024-03-23T05:47:36;5.67;;;3.90;;
1699;SDS011;847;48.058;7.810;2024-03-23T05:50:04;4.53;;;4.13;;
1699;SDS011;847;48.058;7.810;2024-03-23T05:52:31;4.60;;;4.10;;
1699;SDS011;847;48.058;7.810;2024-03-23T05:54:57;5.90;;;5.30;;
1699;SDS011;847;48.058;7.810;2024-03-23T05:57:24;6.33;;;5.10;;
1699;SDS011;847;48.058;7.810;2024-03-23T05:59:50;6.77;;;6.03;;
1699;SDS011;847;48.058;7.810;2024-03-23T06:02:17;6.50;;;5.53;;
1699;SDS011;847;48.058;7.810;2024-03-23T06:04:45;7.53;;;5.97;;
1699;SDS011;847;48.058;7.810;2024-03-23T06:07:13;9.70;;;6.10;;
1699;SDS011;847;48.058;7.810;2024-03-23T06:09:39;7.30;;;6.07;;
1699;SDS011;847;48.058;7.810;2024-03-23T06:12:06;4.73;;;4.23;;
1699;SDS011;847;48.058;7.810;2024-03-23T06:14:32;5.80;;;4.90;;
1699;SDS011;847;48.058;7.810;2024-03-23T06:16:59;5.77;;;4.57;;
1699;SDS011;847;48.058;7.810;2024-03-23T06:19:25;5.93;;;3.80;;
1699;SDS011;847;48.058;7.810;2024-03-23T06:21:52;4.13;;;3.40;;
1699;SDS011;847;48.058;7.810;2024-03-23T06:24:19;6.90;;;3.60;;
1699;SDS011;847;48.058;7.810;2024-03-23T06:26:46;2.10;;;1.90;;
1699;SDS011;847;48.058;7.810;2024-03-23T06:29:12;3.10;;;1.80;;
1699;SDS011;847;48.058;7.810;2024-03-23T06:31:39;3.57;;;1.73;;
1699;SDS011;847;48.058;7.810;2024-03-23T06:34:04;1.17;;;1.07;;
1699;SDS011;847;48.058;7.810;2024-03-23T06:36:31;1.00;;;0.67;;
1699;SDS011;847;48.058;7.810;2024-03-23T06:38:57;1.90;;;0.60;;
1699;SDS011;847;48.058;7.810;2024-03-23T06:41:26;0.53;;;0.50;;
1699;SDS011;847;48.058;7.810;2024-03-23T06:43:52;0.60;;;0.60;;
1699;SDS011;847;48.058;7.810;2024-03-23T06:46:18;0.40;;;0.40;;
1699;SDS011;847;48.058;7.810;2024-03-23T06:48:44;2.10;;;1.37;;
1699;SDS011;847;48.058;7.810;2024-03-23T06:51:11;0.60;;;0.50;;
1699;SDS011;847;48.058;7.810;2024-03-23T06:53:37;0.50;;;0.40;;
1699;SDS011;847;48.058;7.810;2024-03-23T06:56:04;0.40;;;0.40;;
1699;SDS011;847;48.058;7.810;2024-03-23T06:58:32;0.50;;;0.40;;
1699;SDS011;847;48.058;7.810;2024-03-23T07:00:59;1.13;;;0.60;;
1699;SDS011;847;48.058;7.810;2024-03-23T07:03:24;1.03;;;0.40;;
1699;SDS011;847;48.058;7.810;2024-03-23T07:05:51;0.40;;;0.37;;
1699;SDS011;847;48.058;7.810;2024-03-23T07:08:17;2.20;;;0.53;;
1699;SDS011;847;48.058;7.810;2024-03-23T07:10:47;0.60;;;0.50;;
1699;SDS011;847;48.058;7.810;2024-03-23T07:13:13;0.40;;;0.40;;
1699;SDS011;847;48.058;7.810;2024-03-23T07:15:41;0.50;;;0.40;;
1699;SDS011;847;48.058;7.810;2024-03-23T07:18:07;0.60;;;0.40;;
1699;SDS011;847;48.058;7.810;2024-03-23T07:20:33;1.17;;;0.60;;
1699;SDS011;847;48.058;7.810;2024-03-23T07:22:59;1.23;;;0.40;;
1699;SDS011;847;48.058;7.810;2024-03-23T07:25:26;2.17;;;0.50;;
1699;SDS011;847;48.058;7.810;2024-03-23T07:27:54;0.40;;;0.40;;
1699;SDS011;847;48.058;7.810;2024-03-23T07:30:20;1.40;;;0.60;;
1699;SDS011;847;48.058;7.810;2024-03-23T07:32:48;1.27;;;0.80;;
1699;SDS011;847;48.058;7.810;2024-03-23T07:35:14;0.70;;;0.60;;
1699;SDS011;847;48.058;7.810;2024-03-23T07:37:40;1.47;;;0.73;;
1699;SDS011;847;48.058;7.810;2024-03-23T07:40:08;1.20;;;0.73;;
1699;SDS011;847;48.058;7.810;2024-03-23T07:42:36;2.23;;;1.23;;
1699;SDS011;847;48.058;7.810;2024-03-23T07:45:02;2.80;;;0.90;;
1699;SDS011;847;48.058;7.810;2024-03-23T07:47:30;2.60;;;0.97;;
1699;SDS011;847;48.058;7.810;2024-03-23T07:49:57;3.00;;;1.20;;
1699;SDS011;847;48.058;7.810;2024-03-23T07:52:24;1.33;;;1.13;;
1699;SDS011;847;48.058;7.810;2024-03-23T07:54:52;0.87;;;0.63;;
1699;SDS011;847;48.058;7.810;2024-03-23T07:57:19;1.40;;;0.90;;
1699;SDS011;847;48.058;7.810;2024-03-23T07:59:45;1.40;;;0.90;;
1699;SDS011;847;48.058;7.810;2024-03-23T08:02:12;1.33;;;1.00;;
1699;SDS011;847;48.058;7.810;2024-03-23T08:04:37;2.83;;;1.00;;
1699;SDS011;847;48.058;7.810;2024-03-23T08:07:05;4.17;;;0.80;;
1699;SDS011;847;48.058;7.810;2024-03-23T08:09:31;1.73;;;1.20;;
1699;SDS011;847;48.058;7.810;2024-03-23T08:11:58;0.80;;;0.80;;
1699;SDS011;847;48.058;7.810;2024-03-23T08:14:23;1.53;;;0.77;;
1699;SDS011;847;48.058;7.810;2024-03-23T08:16:50;3.60;;;1.10;;
1699;SDS011;847;48.058;7.810;2024-03-23T08:19:16;1.00;;;1.00;;
1699;SDS011;847;48.058;7.810;2024-03-23T08:21:43;4.30;;;1.47;;
1699;SDS011;847;48.058;7.810;2024-03-23T08:24:10;6.67;;;1.50;;
1699;SDS011;847;48.058;7.810;2024-03-23T08:26:37;4.87;;;1.30;;
1699;SDS011;847;48.058;7.810;2024-03-23T08:29:03;2.03;;;1.20;;
1699;SDS011;847;48.058;7.810;2024-03-23T08:31:30;2.13;;;1.60;;
1699;SDS011;847;48.058;7.810;2024-03-23T08:33:56;2.07;;;1.87;;
1699;SDS011;847;48.058;7.810;2024-03-23T08:36:22;4.30;;;2.20;;
1699;SDS011;847;48.058;7.810;2024-03-23T08:38:49;4.13;;;2.07;;
1699;SDS011;847;48.058;7.810;2024-03-23T08:41:20;4.53;;;2.37;;
1699;SDS011;847;48.058;7.810;2024-03-23T08:43:45;2.50;;;2.30;;
1699;SDS011;847;48.058;7.810;2024-03-23T08:46:13;4.77;;;2.50;;
1699;SDS011;847;48.058;7.810;2024-03-23T08:48:40;3.00;;;2.57;;
1699;SDS011;847;48.058;7.810;2024-03-23T08:51:09;4.83;;;2.10;;
1699;SDS011;847;48.058;7.810;2024-03-23T08:53:36;4.77;;;3.00;;
1699;SDS011;847;48.058;7.810;2024-03-23T08:56:04;5.77;;;2.70;;
1699;SDS011;847;48.058;7.810;2024-03-23T08:58:32;6.53;;;2.60;;
1699;SDS011;847;48.058;7.810;2024-03-23T09:01:02;9.40;;;3.00;;
1699;SDS011;847;48.058;7.810;2024-03-23T09:03:29;4.93;;;2.60;;
1699;SDS011;847;48.058;7.810;2024-03-23T09:05:57;8.10;;;3.10;;
1699;SDS011;847;48.058;7.810;2024-03-23T09:08:23;5.53;;;3.13;;
1699;SDS011;847;48.058;7.810;2024-03-23T09:10:51;5.00;;;3.37;;
1699;SDS011;847;48.058;7.810;2024-03-23T09:13:17;7.57;;;4.80;;
1699;SDS011;847;48.058;7.810;2024-03-23T09:15:48;4.60;;;3.03;;
1699;SDS011;847;48.058;7.810;2024-03-23T09:18:15;4.67;;;2.70;;
1699;SDS011;847;48.058;7.810;2024-03-23T09:20:42;3.30;;;2.37;;
1699;SDS011;847;48.058;7.810;2024-03-23T09:23:11;8.67;;;3.23;;
1699;SDS011;847;48.058;7.810;2024-03-23T09:26:09;5.03;;;3.30;;
1699;SDS011;847;48.058;7.810;2024-03-23T09:28:36;6.13;;;2.70;;
1699;SDS011;847;48.058;7.810;2024-03-23T09:31:04;4.07;;;2.60;;
1699;SDS011;847;48.058;7.810;2024-03-23T09:33:32;5.37;;;2.50;;
1699;SDS011;847;48.058;7.810;2024-03-23T09:36:02;5.43;;;2.53;;
1699;SDS011;847;48.058;7.810;2024-03-23T09:38:29;7.00;;;2.30;;
1699;SDS011;847;48.058;7.810;2024-03-23T09:40:56;5.97;;;2.50;;
1699;SDS011;847;48.058;7.810;2024-03-23T09:43:23;6.07;;;2.80;;
1699;SDS011;847;48.058;7.810;2024-03-23T09:45:49;5.97;;;2.40;;
1699;SDS011;847;48.058;7.810;2024-03-23T09:48:18;5.53;;;1.90;;
1699;SDS011;847;48.058;7.810;2024-03-23T09:50:44;4.63;;;2.00;;
1699;SDS011;847;48.058;7.810;2024-03-23T09:53:13;4.47;;;2.17;;
1699;SDS011;847;48.058;7.810;2024-03-23T09:55:40;3.40;;;2.27;;
1699;SDS011;847;48.058;7.810;2024-03-23T09:58:08;6.93;;;2.10;;
1699;SDS011;847;48.058;7.810;2024-03-23T10:00:37;1.83;;;1.50;;
1699;SDS011;847;48.058;7.810;2024-03-23T10:03:04;4.00;;;2.17;;
1699;SDS011;847;48.058;7.810;2024-03-23T10:05:33;3.70;;;1.63;;
1699;SDS011;847;48.058;7.810;2024-03-23T10:08:00;3.93;;;1.93;;
1699;SDS011;847;48.058;7.810;2024-03-23T10:10:42;4.97;;;2.30;;
1699;SDS011;847;48.058;7.810;2024-03-23T10:13:09;5.70;;;2.07;;
1699;SDS011;847;48.058;7.810;2024-03-23T10:15:35;6.10;;;2.10;;
1699;SDS011;847;48.058;7.810;2024-03-23T10:18:03;6.63;;;3.30;;
1699;SDS011;847;48.058;7.810;2024-03-23T10:20:44;4.87;;;2.53;;
1699;SDS011;847;48.058;7.810;2024-03-23T10:23:15;3.70;;;2.60;;
1699;SDS011;847;48.058;7.810;2024-03-23T10:25:41;3.77;;;1.97;;
1699;SDS011;847;48.058;7.810;2024-03-23T10:28:08;3.97;;;1.60;;
1699;SDS011;847;48.058;7.810;2024-03-23T10:30:34;3.20;;;1.57;;
1699;SDS011;847;48.058;7.810;2024-03-23T10:33:06;1.00;;;0.90;;
1699;SDS011;847;48.058;7.810;2024-03-23T10:35:33;0.60;;;0.60;;
1699;SDS011;847;48.058;7.810;2024-03-23T10:38:01;2.90;;;0.90;;
1699;SDS011;847;48.058;7.810;2024-03-23T10:40:29;0.90;;;0.80;;
1699;SDS011;847;48.058;7.810;2024-03-23T10:42:57;1.23;;;0.87;;
1699;SDS011;847;48.058;7.810;2024-03-23T10:45:23;2.10;;;1.13;;
1699;SDS011;847;48.058;7.810;2024-03-23T10:47:50;3.07;;;0.90;;
1699;SDS011;847;48.058;7.810;2024-03-23T10:50:17;1.77;;;0.93;;
1699;SDS011;847;48.058;7.810;2024-03-23T10:52:45;1.70;;;0.80;;
1699;SDS011;847;48.058;7.810;2024-03-23T10:55:14;3.57;;;1.10;;
1699;SDS011;847;48.058;7.810;2024-03-23T10:57:45;3.30;;;1.60;;
1699;SDS011;847;48.058;7.810;2024-03-23T11:00:16;1.73;;;1.17;;
1699;SDS011;847;48.058;7.810;2024-03-23T11:02:43;1.53;;;1.43;;
1699;SDS011;847;48.058;7.810;2024-03-23T11:07:54;5.50;;;1.17;;
1699;SDS011;847;48.058;7.810;2024-03-23T11:10:28;2.97;;;1.60;;
1699;SDS011;847;48.058;7.810;2024-03-23T11:12:55;1.20;;;1.10;;
1699;SDS011;847;48.058;7.810;2024-03-23T11:15:21;2.13;;;0.90;;
1699;SDS011;847;48.058;7.810;2024-03-23T11:18:03;1.90;;;0.73;;
1699;SDS011;847;48.058;7.810;2024-03-23T11:20:32;2.83;;;0.97;;
1699;SDS011;847;48.058;7.810;2024-03-23T11:23:00;0.90;;;0.80;;
1699;SDS011;847;48.058;7.810;2024-03-23T11:25:27;0.97;;;0.93;;
1699;SDS011;847;48.058;7.810;2024-03-23T11:27:56;0.97;;;0.90;;
1699;SDS011;847;48.058;7.810;2024-03-23T11:30:24;2.67;;;1.13;;
1699;SDS011;847;48.058;7.810;2024-03-23T11:32:51;2.13;;;1.90;;
1699;SDS011;847;48.058;7.810;2024-03-23T11:35:29;3.87;;;1.40;;
1699;SDS011;847;48.058;7.810;2024-03-23T11:38:02;2.90;;;1.20;;
1699;SDS011;847;48.058;7.810;2024-03-23T11:40:31;2.57;;;1.37;;
1699;SDS011;847;48.058;7.810;2024-03-23T11:42:58;1.57;;;1.30;;
1699;SDS011;847;48.058;7.810;2024-03-23T11:45:26;4.63;;;1.57;;
1699;SDS011;847;48.058;7.810;2024-03-23T11:48:04;3.07;;;1.40;;
1699;SDS011;847;48.058;7.810;2024-03-23T11:50:32;4.67;;;1.80;;
1699;SDS011;847;48.058;7.810;2024-03-23T11:53:08;5.93;;;1.70;;
1699;SDS011;847;48.058;7.810;2024-03-23T11:55:43;3.53;;;1.43;;
1699;SDS011;847;48.058;7.810;2024-03-23T11:58:14;5.50;;;1.50;;
1699;SDS011;847;48.058;7.810;2024-03-23T12:00:41;2.23;;;1.10;;
1699;SDS011;847;48.058;7.810;2024-03-23T12:03:08;3.27;;;1.10;;
1699;SDS011;847;48.058;7.810;2024-03-23T12:05:36;1.93;;;1.73;;
1699;SDS011;847;48.058;7.810;2024-03-23T12:08:16;1.87;;;1.50;;
1699;SDS011;847;48.058;7.810;2024-03-23T12:10:47;1.87;;;1.70;;
1699;SDS011;847;48.058;7.810;2024-03-23T12:13:15;2.60;;;1.20;;
1699;SDS011;847;48.058;7.810;2024-03-23T12:15:43;2.73;;;1.20;;
1699;SDS011;847;48.058;7.810;2024-03-23T12:18:09;2.47;;;2.03;;
1699;SDS011;847;48.058;7.810;2024-03-23T12:20:37;2.07;;;1.33;;
1699;SDS011;847;48.058;7.810;2024-03-23T12:23:06;1.57;;;1.10;;
1699;SDS011;847;48.058;7.810;2024-03-23T12:25:34;3.43;;;1.10;;
1699;SDS011;847;48.058;7.810;2024-03-23T12:28:02;3.87;;;1.10;;
1699;SDS011;847;48.058;7.810;2024-03-23T12:30:31;1.37;;;0.90;;
1699;SDS011;847;48.058;7.810;2024-03-23T12:32:57;2.50;;;1.10;;
1699;SDS011;847;48.058;7.810;2024-03-23T12:35:24;2.43;;;0.90;;
1699;SDS011;847;48.058;7.810;2024-03-23T12:37:49;4.90;;;1.70;;
1699;SDS011;847;48.058;7.810;2024-03-23T12:40:16;3.73;;;1.77;;
1699;SDS011;847;48.058;7.810;2024-03-23T12:42:42;3.33;;;1.30;;
1699;SDS011;847;48.058;7.810;2024-03-23T12:45:10;1.50;;;1.03;;
1699;SDS011;847;48.058;7.810;2024-03-23T12:47:36;3.17;;;1.27;;
1699;SDS011;847;48.058;7.810;2024-03-23T12:50:03;1.93;;;1.27;;
1699;SDS011;847;48.058;7.810;2024-03-23T12:52:29;3.40;;;1.70;;
1699;SDS011;847;48.058;7.810;2024-03-23T12:54:56;2.60;;;1.10;;
1699;SDS011;847;48.058;7.810;2024-03-23T12:57:22;3.27;;;1.27;;
1699;SDS011;847;48.058;7.810;2024-03-23T12:59:50;3.63;;;1.80;;
1699;SDS011;847;48.058;7.810;2024-03-23T13:02:19;2.90;;;1.33;;
1699;SDS011;847;48.058;7.810;2024-03-23T13:04:49;6.50;;;3.40;;
1699;SDS011;847;48.058;7.810;2024-03-23T13:07:15;9.63;;;4.67;;
1699;SDS011;847;48.058;7.810;2024-03-23T13:09:43;3.73;;;2.00;;
1699;SDS011;847;48.058;7.810;2024-03-23T13:12:09;3.80;;;1.40;;
1699;SDS011;847;48.058;7.810;2024-03-23T13:14:37;1.90;;;1.20;;
1699;SDS011;847;48.058;7.810;2024-03-23T13:17:03;4.43;;;2.43;;
1699;SDS011;847;48.058;7.810;2024-03-23T13:19:31;5.93;;;5.13;;
1699;SDS011;847;48.058;7.810;2024-03-23T13:21:57;3.43;;;1.50;;
1699;SDS011;847;48.058;7.810;2024-03-23T13:24:25;4.47;;;2.20;;
1699;SDS011;847;48.058;7.810;2024-03-23T13:26:51;4.10;;;2.40;;
1699;SDS011;847;48.058;7.810;2024-03-23T13:29:18;3.03;;;2.70;;
1699;SDS011;847;48.058;7.810;2024-03-23T13:31:45;2.07;;;1.63;;
1699;SDS011;847;48.058;7.810;2024-03-23T13:34:12;4.17;;;2.00;;
1699;SDS011;847;48.058;7.810;2024-03-23T13:36:41;2.70;;;2.17;;
1699;SDS011;847;48.058;7.810;2024-03-23T13:39:08;6.23;;;1.80;;
1699;SDS011;847;48.058;7.810;2024-03-23T13:41:36;3.47;;;1.73;;
1699;SDS011;847;48.058;7.810;2024-03-23T13:44:04;2.80;;;1.70;;
1699;SDS011;847;48.058;7.810;2024-03-23T13:46:30;4.23;;;1.90;;
1699;SDS011;847;48.058;7.810;2024-03-23T13:48:56;5.70;;;1.50;;
1699;SDS011;847;48.058;7.810;2024-03-23T13:51:22;8.93;;;1.90;;
1699;SDS011;847;48.058;7.810;2024-03-23T13:53:53;5.93;;;1.80;;
1699;SDS011;847;48.058;7.810;2024-03-23T13:56:19;4.03;;;1.80;;
1699;SDS011;847;48.058;7.810;2024-03-23T13:58:46;8.13;;;2.50;;
1699;SDS011;847;48.058;7.810;2024-03-23T14:01:13;7.00;;;3.57;;
1699;SDS011;847;48.058;7.810;2024-03-23T14:03:40;2.60;;;2.10;;
1699;SDS011;847;48.058;7.810;2024-03-23T14:06:06;3.77;;;2.00;;
1699;SDS011;847;48.058;7.810;2024-03-23T14:08:33;3.60;;;2.10;;
1699;SDS011;847;48.058;7.810;2024-03-23T14:11:03;2.60;;;1.80;;
1699;SDS011;847;48.058;7.810;2024-03-23T14:13:30;3.47;;;1.90;;
1699;SDS011;847;48.058;7.810;2024-03-23T14:15:56;3.30;;;1.63;;
1699;SDS011;847;48.058;7.810;2024-03-23T14:18:23;2.90;;;1.97;;
1699;SDS011;847;48.058;7.810;2024-03-23T14:20:49;6.20;;;2.30;;
1699;SDS011;847;48.058;7.810;2024-03-23T14:23:15;3.43;;;2.40;;
1699;SDS011;847;48.058;7.810;2024-03-23T14:25:44;1.27;;;1.17;;
1699;SDS011;847;48.058;7.810;2024-03-23T14:28:12;2.80;;;1.70;;
1699;SDS011;847;48.058;7.810;2024-03-23T14:30:40;3.27;;;2.13;;
1699;SDS011;847;48.058;7.810;2024-03-23T14:33:07;6.00;;;4.83;;
1699;SDS011;847;48.058;7.810;2024-03-23T14:35:33;8.20;;;5.90;;
1699;SDS011;847;48.058;7.810;2024-03-23T14:38:00;10.20;;;9.20;;
1699;SDS011;847;48.058;7.810;2024-03-23T14:40:26;7.03;;;6.30;;
1699;SDS011;847;48.058;7.810;2024-03-23T14:42:53;10.80;;;5.97;;
1699;SDS011;847;48.058;7.810;2024-03-23T14:45:20;4.07;;;3.60;;
1699;SDS011;847;48.058;7.810;2024-03-23T14:47:48;3.27;;;1.20;;
1699;SDS011;847;48.058;7.810;2024-03-23T14:50:14;2.20;;;0.70;;
1699;SDS011;847;48.058;7.810;2024-03-23T14:52:42;4.10;;;1.70;;
1699;SDS011;847;48.058;7.810;2024-03-23T14:55:09;23.13;;;13.60;;
1699;SDS011;847;48.058;7.810;2024-03-23T14:57:36;1.63;;;1.50;;
1699;SDS011;847;48.058;7.810;2024-03-23T15:00:02;4.20;;;1.90;;
1699;SDS011;847;48.058;7.810;2024-03-23T15:02:33;3.87;;;1.77;;
1699;SDS011;847;48.058;7.810;2024-03-23T15:04:59;2.97;;;1.80;;
1699;SDS011;847;48.058;7.810;2024-03-23T15:07:26;3.57;;;1.90;;
1699;SDS011;847;48.058;7.810;2024-03-23T15:09:53;3.30;;;1.40;;
1699;SDS011;847;48.058;7.810;2024-03-23T15:12:20;2.03;;;1.00;;
1699;SDS011;847;48.058;7.810;2024-03-23T15:14:46;5.17;;;1.70;;
1699;SDS011;847;48.058;7.810;2024-03-23T15:17:13;2.87;;;2.10;;
1699;SDS011;847;48.058;7.810;2024-03-23T15:19:41;3.13;;;1.50;;
1699;SDS011;847;48.058;7.810;2024-03-23T15:22:08;1.70;;;0.70;;
1699;SDS011;847;48.058;7.810;2024-03-23T15:24:35;1.93;;;1.30;;
1699;SDS011;847;48.058;7.810;2024-03-23T15:27:02;3.53;;;1.20;;
1699;SDS011;847;48.058;7.810;2024-03-23T15:29:28;2.10;;;0.77;;
1699;SDS011;847;48.058;7.810;2024-03-23T15:31:56;2.83;;;0.77;;
1699;SDS011;847;48.058;7.810;2024-03-23T15:34:21;3.03;;;1.53;;
1699;SDS011;847;48.058;7.810;2024-03-23T15:36:50;1.43;;;0.70;;
1699;SDS011;847;48.058;7.810;2024-03-23T15:39:16;1.80;;;0.90;;
1699;SDS011;847;48.058;7.810;2024-03-23T15:41:45;2.30;;;0.50;;
1699;SDS011;847;48.058;7.810;2024-03-23T15:44:11;2.13;;;0.60;;
1699;SDS011;847;48.058;7.810;2024-03-23T15:46:38;1.10;;;0.77;;
1699;SDS011;847;48.058;7.810;2024-03-23T15:49:04;2.10;;;1.00;;
1699;SDS011;847;48.058;7.810;2024-03-23T15:51:31;2.07;;;1.57;;
1699;SDS011;847;48.058;7.810;2024-03-23T15:54:00;3.50;;;1.17;;
1699;SDS011;847;48.058;7.810;2024-03-23T15:56:28;1.73;;;1.47;;
1699;SDS011;847;48.058;7.810;2024-03-23T15:58:54;2.23;;;1.80;;
1699;SDS011;847;48.058;7.810;2024-03-23T16:01:26;8.17;;;7.00;;
1699;SDS011;847;48.058;7.810;2024-03-23T16:03:51;8.37;;;6.13;;
1699;SDS011;847;48.058;7.810;2024-03-23T16:06:18;7.70;;;4.47;;
1699;SDS011;847;48.058;7.810;2024-03-23T16:08:44;5.53;;;4.10;;
1699;SDS011;847;48.058;7.810;2024-03-23T16:11:12;2.43;;;1.90;;
1699;SDS011;847;48.058;7.810;2024-03-23T16:13:37;2.77;;;1.80;;
1699;SDS011;847;48.058;7.810;2024-03-23T16:16:06;2.70;;;1.00;;
1699;SDS011;847;48.058;7.810;2024-03-23T16:18:32;2.90;;;1.40;;
1699;SDS011;847;48.058;7.810;2024-03-23T16:21:00;5.37;;;1.20;;
1699;SDS011;847;48.058;7.810;2024-03-23T16:23:27;2.30;;;1.30;;
1699;SDS011;847;48.058;7.810;2024-03-23T16:25:55;2.37;;;1.30;;